createdAt,value
2019-03-23T00:07:47.345Z,8
2019-03-23T00:18:30.776Z,12
2019-03-23T00:29:11.423Z,12
2019-03-23T00:39:52.133Z,11
2019-03-23T00:50:36.303Z,8
2019-03-23T01:01:18.882Z,10
2019-03-23T01:11:58.528Z,9
2019-03-23T01:22:43.231Z,10
2019-03-23T01:33:26.939Z,11
2019-03-23T01:44:10.914Z,13
2019-03-23T01:54:53.015Z,16
2019-03-23T02:05:37.296Z,13
2019-03-23T02:16:21.359Z,11
2019-03-23T02:27:04.725Z,16
2019-03-23T02:37:46.489Z,17
2019-03-23T02:48:31.688Z,13
2019-03-23T02:59:12.445Z,16
2019-03-23T03:09:55.610Z,16
2019-03-23T03:20:40.046Z,18
2019-03-23T03:31:24.831Z,18
2019-03-23T03:42:07.461Z,17
2019-03-23T03:52:52.688Z,21
2019-03-23T04:03:35.957Z,20
2019-03-23T04:14:18.333Z,22
2019-03-23T04:25:01.216Z,23
2019-03-23T04:35:43.209Z,23
2019-03-23T04:46:26.724Z,23
2019-03-23T04:57:09.615Z,31
2019-03-23T05:07:53.680Z,56
2019-03-23T05:18:39.214Z,78
2019-03-23T05:29:24.804Z,95
2019-03-23T05:40:08.746Z,87
2019-03-23T05:50:49.588Z,92
2019-03-23T06:01:34.327Z,90
2019-03-23T06:12:17.762Z,76
2019-03-23T06:23:02.087Z,72
2019-03-23T06:33:42.794Z,72
2019-03-23T06:44:25.090Z,71
2019-03-23T06:55:07.527Z,66
2019-03-23T07:05:49.029Z,56
2019-03-23T07:16:32.456Z,53
2019-03-23T07:27:11.877Z,51
2019-03-23T07:37:48.237Z,50
2019-03-23T07:48:33.517Z,54
2019-03-23T07:59:16.652Z,54
2019-03-23T08:10:00.934Z,57
2019-03-23T08:20:44.248Z,57
2019-03-23T08:31:21.908Z,60
2019-03-23T08:42:02.999Z,46
2019-03-23T08:52:47.279Z,46
2019-03-23T09:03:35.948Z,46
2019-03-23T09:14:04.595Z,44
2019-03-23T09:24:45.977Z,47
2019-03-23T09:35:25.541Z,47
2019-03-23T09:46:08.547Z,47
2019-03-23T09:56:52.261Z,54
2019-03-23T10:07:36.602Z,56
2019-03-23T10:18:20.595Z,52
2019-03-23T10:29:06.376Z,53
2019-03-23T10:39:50.017Z,53
2019-03-23T10:50:32.589Z,44
2019-03-23T11:01:17.082Z,45
2019-03-23T11:12:01.011Z,54
2019-03-23T11:22:42.453Z,60
2019-03-23T11:33:27.145Z,58
2019-03-23T11:44:04.424Z,54
2019-03-23T11:54:43.640Z,50
2019-03-23T12:05:24.981Z,59
2019-03-23T12:16:01.896Z,61
2019-03-23T12:26:39.159Z,48
2019-03-23T12:37:17.412Z,47
2019-03-23T12:47:51.178Z,46
2019-03-23T12:58:24.559Z,48
2019-03-23T13:09:00.660Z,59
2019-03-23T13:19:34.935Z,59
2019-03-23T13:30:14.165Z,54
2019-03-23T13:40:50.973Z,57
2019-03-23T13:51:33.672Z,55
2019-03-23T14:02:08.376Z,56
2019-03-23T14:12:49.824Z,57
2019-03-23T14:23:34.286Z,59
2019-03-23T14:34:17.610Z,59
2019-03-23T14:44:54.850Z,57
2019-03-23T14:55:37.855Z,62
2019-03-23T15:06:22.576Z,50
2019-03-23T15:17:05.878Z,48
2019-03-23T15:27:51.254Z,48
2019-03-23T15:38:33.606Z,46
2019-03-23T15:49:18.129Z,49
2019-03-23T16:00:02.683Z,51
2019-03-23T16:10:41.228Z,48
2019-03-23T16:21:21.526Z,47
2019-03-23T16:31:56.728Z,49
2019-03-23T16:42:31.450Z,48
2019-03-23T16:53:13.601Z,46
2019-03-23T17:03:53.636Z,47
2019-03-23T17:14:34.963Z,47
2019-03-23T17:25:16.493Z,47
2019-03-23T17:35:57.216Z,43
2019-03-23T17:46:38.375Z,46
2019-03-23T17:57:12.652Z,47
2019-03-23T18:07:47.279Z,48
2019-03-23T18:18:18.040Z,47
2019-03-23T18:28:56.652Z,52
2019-03-23T18:39:36.276Z,74
2019-03-23T18:50:17.030Z,56
2019-03-23T19:00:51.986Z,51
2019-03-23T19:11:32.778Z,53
2019-03-23T19:22:09.936Z,51
2019-03-23T19:32:52.722Z,53
2019-03-23T19:43:33.231Z,53
2019-03-23T19:54:12.859Z,52
2019-03-23T20:04:52.471Z,53
2019-03-23T20:15:28.884Z,53
2019-03-23T20:26:10.514Z,51
2019-03-23T20:36:47.316Z,53
2019-03-23T20:47:22.311Z,51
2019-03-23T20:57:54.158Z,52
2019-03-23T21:08:33.040Z,51
2019-03-23T21:19:11.501Z,50
2019-03-23T21:29:49.630Z,50
2019-03-23T21:40:27.901Z,52
2019-03-23T21:51:08.922Z,49
2019-03-23T22:01:50.374Z,49
2019-03-23T22:12:30.712Z,48
2019-03-23T22:23:10.529Z,50
2019-03-23T22:33:51.815Z,53
2019-03-23T22:44:36.145Z,47
2019-03-23T22:55:18.171Z,48
2019-03-23T23:05:54.591Z,50
2019-03-23T23:16:37.272Z,52
2019-03-23T23:27:21.984Z,46
2019-03-23T23:38:06.579Z,49
2019-03-23T23:48:51.506Z,46
2019-03-23T23:59:34.060Z,54
